Time;durP1;ratioP1;P1;durP2;ratioP2;P2;SDS_P1;SDS_P2;PMS_P1;PMS_P2;Temp;Humidity;BMP_temperature;BMP_pressure;BME280_temperature;BME280_humidity;BME280_pressure;Samples;Min_cycle;Max_cycle;Signal;HPM_P1;HPM_P2
2022/03/12 00:01:36;;;;;;;23.42;13.85;;;6.30;92.40;;;5.63;100.00;97533.34;4981379;28;20124;-67
2022/03/12 00:04:06;;;;;;;22.70;12.65;;;6.30;91.70;;;5.73;100.00;97534.00;4983655;28;20415;-66
2022/03/12 00:06:35;;;;;;;24.02;12.80;;;6.20;91.50;;;5.73;100.00;97539.16;4980916;28;20480;-67
2022/03/12 00:09:03;;;;;;;27.33;14.10;;;6.20;92.80;;;5.62;100.00;97536.81;4983352;28;20055;-68
2022/03/12 00:11:36;;;;;;;20.95;13.20;;;6.20;92.40;;;5.66;100.00;97535.88;4965375;28;20078;-66
2022/03/12 00:14:05;;;;;;;;;;;6.20;92.70;;;5.52;100.00;97537.91;4964277;28;20123;-66
2022/03/12 00:16:32;;;;;;;25.05;14.05;;;6.20;93.10;;;5.60;100.00;97536.84;4981124;28;19930;-67
2022/03/12 00:19:04;;;;;;;22.85;13.50;;;6.10;92.70;;;5.59;100.00;97539.47;4965175;28;20058;-66
2022/03/12 00:21:36;;;;;;;25.55;15.00;;;6.10;92.90;;;5.57;100.00;97546.38;4976943;28;20051;-67
2022/03/12 00:24:06;;;;;;;24.03;13.50;;;6.10;92.70;;;5.63;100.00;97552.25;4981264;28;20089;-67
2022/03/12 00:26:39;;;;;;;26.63;15.15;;;6.10;92.60;;;5.68;100.00;97559.84;4964541;28;20696;-67
2022/03/12 00:29:13;;;;;;;30.75;14.82;;;6.10;93.20;;;5.55;100.00;97556.72;4965724;28;20212;-67
2022/03/12 00:31:53;;;;;;;31.02;14.57;;;6.10;93.00;;;5.30;100.00;97555.56;4984799;28;20088;-67
2022/03/12 00:34:20;;;;;;;22.13;13.07;;;6.00;93.80;;;5.06;100.00;97559.50;4979928;28;20133;-67
2022/03/12 00:36:48;;;;;;;30.17;14.90;;;5.90;95.30;;;5.11;100.00;97561.13;4981368;28;20481;-67
2022/03/12 00:39:16;;;;;;;27.30;13.73;;;5.70;95.80;;;5.17;100.00;97553.25;4981371;28;20177;-66
2022/03/12 00:41:43;;;;;;;25.65;15.02;;;5.70;95.60;;;5.27;100.00;97563.34;4979433;28;20070;-66
2022/03/12 00:44:19;;;;;;;27.83;14.35;;;5.80;95.30;;;5.33;100.00;97558.91;4979742;28;20098;-67
2022/03/12 00:46:47;;;;;;;22.67;13.80;;;5.80;95.80;;;5.27;100.00;97559.06;4984053;28;20101;-67
2022/03/12 00:49:14;;;;;;;25.02;13.85;;;5.80;95.60;;;5.32;100.00;97562.38;4979108;28;20050;-68
2022/03/12 00:51:44;;;;;;;26.17;14.45;;;5.80;94.90;;;5.38;100.00;97563.94;4983111;28;20117;-67
2022/03/12 00:54:11;;;;;;;25.27;13.93;;;5.90;94.70;;;5.55;100.00;97559.28;4976553;28;20063;-67
2022/03/12 00:56:39;;;;;;;30.17;15.25;;;5.90;94.70;;;5.53;100.00;97555.91;4980354;28;20046;-67
2022/03/12 00:59:08;;;;;;;26.48;14.57;;;6.00;94.30;;;5.47;100.00;97566.31;4982359;28;20559;-68
2022/03/12 01:01:35;;;;;;;29.08;15.10;;;6.00;94.50;;;5.52;100.00;97561.06;4986109;28;20134;-68
2022/03/12 01:04:03;;;;;;;26.23;15.10;;;6.10;94.70;;;5.56;100.00;97568.69;4985870;28;20050;-68
2022/03/12 01:06:30;;;;;;;27.95;14.48;;;6.10;94.80;;;5.51;100.00;97570.53;4981483;28;20126;-67
2022/03/12 01:08:57;;;;;;;27.67;15.13;;;6.10;94.90;;;5.67;100.00;97565.88;4986622;28;20050;-66
2022/03/12 01:11:24;;;;;;;25.73;13.52;;;6.10;95.00;;;5.67;100.00;97571.03;4981805;28;20161;-67
2022/03/12 01:13:51;;;;;;;24.67;13.40;;;6.20;95.00;;;5.82;100.00;97572.41;4968657;28;20148;-67
2022/03/12 01:16:18;;;;;;;26.42;13.98;;;6.20;94.90;;;5.80;100.00;97571.59;4985739;28;20105;-66
2022/03/12 01:18:46;;;;;;;29.73;14.65;;;6.20;95.00;;;5.84;100.00;97574.06;4983669;28;20137;-67
2022/03/12 01:21:19;;;;;;;34.60;15.50;;;6.40;96.40;;;5.59;100.00;97578.09;4984573;28;20157;-66
2022/03/12 01:23:48;;;;;;;25.42;14.95;;;6.20;96.70;;;5.65;100.00;97583.09;4968234;28;20104;-66
2022/03/12 01:26:18;;;;;;;28.67;13.40;;;6.30;97.20;;;5.83;100.00;97582.66;4983938;28;20046;-66
2022/03/12 01:28:46;;;;;;;32.03;16.90;;;6.40;97.10;;;5.97;100.00;97584.94;4985416;28;20118;-67
2022/03/12 01:31:15;;;;;;;28.67;14.00;;;6.60;97.00;;;6.15;100.00;97583.66;4986674;28;20188;-67
2022/03/12 01:33:43;;;;;;;25.52;14.35;;;6.70;97.60;;;6.12;100.00;97580.31;4984279;28;20074;-67
2022/03/12 01:36:10;;;;;;;33.13;17.63;;;6.70;97.10;;;6.18;100.00;97578.44;4984055;28;20137;-67
2022/03/12 01:38:57;;;;;;;34.67;18.25;;;6.70;97.00;;;6.05;100.00;97577.03;4978728;28;20051;-67
2022/03/12 01:41:27;;;;;;;27.95;14.88;;;6.80;97.30;;;6.22;100.00;97579.19;4979394;28;20050;-67
2022/03/12 01:43:57;;;;;;;29.15;14.93;;;6.80;99.40;;;6.08;100.00;97584.69;4963550;28;20051;-68
2022/03/12 01:46:41;;;;;;;24.50;12.57;;;6.90;98.30;;;6.37;100.00;97581.38;4982756;28;20142;-67
2022/03/12 01:49:18;;;;;;;19.70;10.70;;;6.90;99.90;;;6.58;100.00;97579.13;4981047;28;20591;-66
2022/03/12 01:51:49;;;;;;;19.35;10.65;;;7.00;99.90;;;6.51;100.00;97573.28;4983805;28;20050;-68
2022/03/12 01:54:23;;;;;;;19.45;11.13;;;7.10;99.90;;;6.47;100.00;97580.25;4984405;28;20082;-68
2022/03/12 01:56:53;;;;;;;23.42;11.02;;;7.10;99.90;;;6.61;100.00;97571.31;4986288;28;20081;-67
2022/03/12 01:59:21;;;;;;;18.40;10.35;;;7.10;99.90;;;6.69;100.00;97577.94;4983546;28;20485;-67
2022/03/12 02:01:52;;;;;;;16.83;9.80;;;7.20;99.90;;;6.68;100.00;97580.56;4983495;28;20465;-67
2022/03/12 02:04:22;;;;;;;16.40;10.10;;;7.20;99.90;;;6.64;100.00;97581.56;4980790;28;20047;-67
2022/03/12 02:06:52;;;;;;;17.23;10.68;;;7.30;99.90;;;6.72;100.00;97576.19;4983819;28;20583;-65
2022/03/12 02:09:22;;;;;;;17.45;10.73;;;7.30;99.90;;;6.69;100.00;97577.94;4983409;28;20054;-66
2022/03/12 02:11:50;;;;;;;21.35;8.88;;;7.30;99.90;;;6.73;100.00;97583.88;4983790;28;20090;-66
2022/03/12 02:14:28;;;;;;;17.83;10.95;;;7.20;99.90;;;6.72;100.00;97589.91;4986163;28;20149;-67
2022/03/12 02:16:59;;;;;;;18.20;10.00;;;7.30;99.90;;;6.68;100.00;97589.16;4983683;28;20535;-66
2022/03/12 02:19:28;;;;;;;14.63;8.60;;;7.30;99.90;;;6.88;100.00;97590.34;4985452;28;20370;-65
2022/03/12 02:22:14;;;;;;;14.55;8.32;;;7.30;99.90;;;6.97;100.00;97586.66;4969250;28;20078;-67
2022/03/12 02:24:42;;;;;;;16.95;9.77;;;7.50;99.90;;;6.91;100.00;97592.81;4984396;28;20081;-66
2022/03/12 02:27:10;;;;;;;15.80;8.85;;;7.60;99.90;;;6.94;100.00;97590.19;4983888;28;20213;-67
2022/03/12 02:29:40;;;;;;;14.98;7.93;;;7.60;99.90;;;7.07;100.00;97588.09;4983450;28;20047;-67
2022/03/12 02:32:10;;;;;;;16.10;8.25;;;7.60;99.90;;;6.97;100.00;97586.66;4982763;28;20050;-67
2022/03/12 02:34:44;;;;;;;16.75;8.27;;;7.60;99.90;;;7.03;100.00;97594.25;4983592;28;20101;-66
2022/03/12 02:37:27;;;;;;;17.80;9.75;;;7.60;99.90;;;6.81;100.00;97606.88;4976177;28;20054;-68
2022/03/12 02:40:00;;;;;;;14.38;9.32;;;7.60;99.90;;;6.78;100.00;97605.22;4986311;28;20287;-67
2022/03/12 02:42:28;;;;;;;13.52;8.00;;;7.70;99.90;;;6.98;100.00;97604.69;4981949;28;20584;-67
2022/03/12 02:44:57;;;;;;;15.60;8.60;;;7.60;99.90;;;7.06;100.00;97604.47;4983868;28;20121;-67
2022/03/12 02:47:31;;;;;;;14.73;8.35;;;7.60;99.90;;;6.99;100.00;97596.06;4984689;28;20074;-67
2022/03/12 02:50:07;;;;;;;13.98;8.00;;;7.60;99.90;;;7.01;100.00;97591.69;4989228;28;20133;-67
2022/03/12 02:52:41;;;;;;;13.50;7.97;;;7.60;99.90;;;7.03;100.00;97604.56;4991307;28;20047;-67
2022/03/12 02:55:15;;;;;;;15.27;8.43;;;7.70;99.90;;;6.94;100.00;97602.25;4991121;28;20076;-66
2022/03/12 02:57:45;;;;;;;13.63;8.50;;;7.70;99.90;;;7.01;100.00;97612.34;4989391;28;20046;-67
2022/03/12 03:00:13;;;;;;;14.02;7.97;;;7.80;99.90;;;6.98;100.00;97606.41;4981178;28;20752;-67
2022/03/12 03:02:41;;;;;;;12.68;8.13;;;7.70;99.90;;;7.10;100.00;97600.94;4968242;28;20129;-67
2022/03/12 03:05:41;;;;;;;11.57;6.88;;;7.70;99.90;;;7.13;100.00;97606.81;4983872;28;20053;-67
2022/03/12 03:08:10;;;;;;;12.02;7.85;;;7.70;99.90;;;7.02;100.00;97608.84;4985702;28;20042;-67
2022/03/12 03:10:43;;;;;;;13.15;7.80;;;7.80;99.90;;;7.09;100.00;97612.13;4982536;28;20133;-66
2022/03/12 03:13:35;;;;;;;13.27;7.85;;;7.80;99.90;;;6.98;100.00;97616.72;4983626;28;20113;-67
2022/03/12 03:16:30;;;;;;;12.60;7.38;;;7.80;99.90;;;7.08;100.00;97623.34;4982677;28;20081;-67
2022/03/12 03:18:58;;;;;;;16.25;8.68;;;7.80;99.90;;;6.92;100.00;97628.09;4983582;28;20094;-67
2022/03/12 03:21:26;;;;;;;13.70;8.57;;;7.70;99.90;;;6.66;100.00;97644.22;4979564;28;20053;-67
2022/03/12 03:23:54;;;;;;;20.48;11.73;;;7.70;99.90;;;6.31;100.00;97639.97;4963264;28;20050;-67
2022/03/12 03:26:38;;;;;;;18.15;10.90;;;7.60;99.90;;;6.53;100.00;97648.03;4979621;28;20054;-67
2022/03/12 03:29:08;;;;;;;16.40;9.43;;;7.40;99.90;;;6.59;100.00;97648.72;4976847;28;20497;-67
2022/03/12 03:31:36;;;;;;;16.52;8.93;;;7.30;99.90;;;6.58;100.00;97662.50;4983378;28;20128;-67
2022/03/12 03:34:03;;;;;;;14.10;8.60;;;7.30;99.90;;;6.55;100.00;97654.84;4980637;28;20057;-67
2022/03/12 03:36:30;;;;;;;16.83;7.88;;;7.30;99.90;;;6.47;100.00;97662.75;4981018;28;20097;-67
2022/03/12 03:38:58;;;;;;;21.98;8.65;;;7.30;99.90;;;6.59;100.00;97659.03;4983188;28;20058;-66
2022/03/12 03:41:25;;;;;;;17.15;10.25;;;7.20;99.90;;;6.31;100.00;97660.59;4981375;28;20043;-67
2022/03/12 03:43:52;;;;;;;13.07;8.85;;;7.20;99.90;;;6.36;100.00;97661.34;4983375;28;20078;-66
2022/03/12 03:46:22;;;;;;;13.13;8.00;;;7.20;99.90;;;6.49;100.00;97665.31;4981021;28;20077;-70
2022/03/12 03:48:53;;;;;;;16.73;8.90;;;7.20;99.90;;;6.40;100.00;97670.69;4982732;28;20042;-66
2022/03/12 03:51:21;;;;;;;14.05;8.68;;;7.10;99.90;;;6.45;100.00;97666.25;4980401;28;20153;-67
2022/03/12 03:53:50;;;;;;;12.93;7.90;;;7.20;99.90;;;6.44;100.00;97657.69;4982840;28;20093;-66
2022/03/12 03:56:19;;;;;;;13.95;7.43;;;7.20;99.90;;;6.52;100.00;97669.53;4981974;28;20130;-67
2022/03/12 03:58:46;;;;;;;12.40;7.60;;;7.10;99.90;;;6.49;100.00;97666.16;4982592;28;20129;-67
2022/03/12 04:01:22;;;;;;;12.55;7.30;;;7.20;99.90;;;6.46;100.00;97670.56;4984613;28;20137;-68
2022/03/12 04:03:49;;;;;;;12.30;8.45;;;7.20;99.90;;;6.46;100.00;97668.81;4979289;28;20358;-67
2022/03/12 04:06:22;;;;;;;16.23;8.30;;;7.20;99.90;;;6.37;100.00;97675.94;4983361;28;20073;-67
2022/03/12 04:08:51;;;;;;;16.08;9.38;;;7.20;99.90;;;6.19;100.00;97675.47;4982520;28;20412;-68
2022/03/12 04:11:25;;;;;;;17.95;9.88;;;7.10;99.90;;;5.98;100.00;97678.56;4986334;28;20534;-68
2022/03/12 04:13:54;;;;;;;18.75;10.38;;;7.10;99.90;;;5.82;100.00;97684.00;4983945;28;20051;-67
2022/03/12 04:16:21;;;;;;;19.13;10.73;;;6.90;99.90;;;5.85;100.00;97686.50;4966582;28;20484;-67
2022/03/12 04:18:49;;;;;;;15.20;10.27;;;6.90;99.90;;;6.00;100.00;97692.25;4980620;28;20050;-68
2022/03/12 04:21:20;;;;;;;16.90;11.07;;;6.80;99.90;;;5.77;100.00;97695.28;4982628;28;20141;-68
2022/03/12 04:23:49;;;;;;;17.67;11.43;;;6.80;99.90;;;5.64;66.11;97699.84;4981322;28;20101;-66
2022/03/12 04:26:16;;;;;;;20.60;11.07;;;6.80;99.90;;;5.70;51.75;97702.28;4982004;28;20501;-67
2022/03/12 04:28:43;;;;;;;19.95;10.85;;;6.80;99.90;;;5.71;51.34;97703.16;4980890;28;20116;-67
2022/03/12 04:31:11;;;;;;;18.63;11.93;;;6.70;99.90;;;5.69;51.82;97710.91;4982801;28;20567;-67
2022/03/12 04:33:39;;;;;;;18.42;11.68;;;6.70;99.90;;;5.67;54.45;97710.09;4971728;28;20054;-66
2022/03/12 04:36:09;;;;;;;18.83;11.93;;;6.70;99.90;;;5.61;60.00;97713.66;4990017;28;20141;-67
2022/03/12 04:38:37;;;;;;;18.60;9.65;;;6.70;99.90;;;5.73;63.68;97715.13;4986980;28;20153;-67
2022/03/12 04:41:07;;;;;;;17.80;10.68;;;6.70;99.90;;;5.63;65.45;97724.78;4986565;28;20470;-67
2022/03/12 04:43:34;;;;;;;21.60;11.77;;;6.70;99.90;;;5.70;66.36;97711.75;4983446;28;20043;-68
2022/03/12 04:46:02;;;;;;;16.75;9.90;;;6.70;99.90;;;5.60;66.95;97706.78;4983830;28;20043;-67
2022/03/12 04:48:30;;;;;;;19.88;11.40;;;6.70;99.90;;;5.81;67.03;97712.38;4987652;28;20571;-67
2022/03/12 04:50:58;;;;;;;17.05;10.23;;;6.70;99.90;;;5.87;66.34;97712.25;4985253;28;20054;-67
2022/03/12 04:53:26;;;;;;;16.35;10.95;;;6.60;99.90;;;5.79;65.88;97712.41;4986280;28;20079;-66
2022/03/12 04:55:54;;;;;;;18.25;10.07;;;6.60;99.90;;;5.94;64.60;97719.00;4984984;28;20125;-66
2022/03/12 04:58:22;;;;;;;19.33;10.82;;;6.70;99.90;;;6.01;64.17;97714.56;4984438;28;20137;-67
2022/03/12 05:00:49;;;;;;;18.42;10.23;;;6.70;99.90;;;5.84;64.31;97720.06;4984467;28;20109;-66
2022/03/12 05:03:20;;;;;;;18.23;11.50;;;6.70;99.90;;;5.81;64.64;97723.50;4985409;28;20120;-67
2022/03/12 05:05:50;;;;;;;16.70;10.15;;;6.60;99.90;;;5.70;65.00;97720.31;4981598;28;20074;-67
2022/03/12 05:08:25;;;;;;;17.10;10.95;;;6.60;99.90;;;5.85;65.16;97720.00;4985847;28;20098;-66
2022/03/12 05:10:54;;;;;;;13.15;8.38;;;6.60;99.90;;;6.05;65.54;97717.03;4986125;28;20088;-67
2022/03/12 05:13:23;;;;;;;16.70;10.80;;;6.70;99.90;;;5.98;67.18;97720.63;4983541;28;20386;-67
2022/03/12 05:15:55;;;;;;;15.55;9.70;;;6.70;99.90;;;6.10;68.08;97701.47;4987178;28;20135;-67
2022/03/12 05:18:26;;;;;;;16.65;9.52;;;6.80;99.90;;;6.26;69.14;97701.97;4985881;28;20145;-66
2022/03/12 05:20:54;;;;;;;15.63;9.52;;;6.80;99.90;;;6.24;72.90;97701.16;4972770;28;20169;-65
2022/03/12 05:23:23;;;;;;;17.25;10.65;;;6.80;99.90;;;6.09;70.13;97707.50;4985233;28;20145;-65
2022/03/12 05:25:51;;;;;;;16.17;10.10;;;6.80;99.90;;;5.94;67.61;97707.81;4985876;28;20073;-65
2022/03/12 05:28:31;;;;;;;18.27;12.05;;;6.80;99.90;;;5.84;66.00;97713.16;4985928;28;20129;-64
2022/03/12 05:31:04;;;;;;;18.15;10.98;;;6.80;99.90;;;5.84;65.36;97712.31;4983276;28;20088;-65
2022/03/12 05:33:33;;;;;;;17.13;10.63;;;6.70;99.90;;;6.08;66.83;97706.63;4973532;28;20091;-65
2022/03/12 05:36:03;;;;;;;15.98;9.45;;;6.80;99.90;;;6.22;70.77;97697.75;4988483;28;20483;-66
2022/03/12 05:38:35;;;;;;;15.57;9.23;;;6.80;99.90;;;6.43;78.75;97693.81;4984863;28;20116;-65
2022/03/12 05:41:11;;;;;;;15.98;10.32;;;6.90;99.90;;;6.30;100.00;97690.69;4985454;28;20076;-66
2022/03/12 05:43:46;;;;;;;18.23;9.57;;;7.00;99.90;;;6.26;100.00;97699.38;4976665;28;20047;-66
2022/03/12 05:46:19;;;;;;;18.33;10.13;;;6.90;99.90;;;6.30;100.00;97702.75;4981210;28;20118;-66
2022/03/12 05:48:47;;;;;;;15.38;8.50;;;6.90;99.90;;;6.45;100.00;97703.22;4970936;28;20125;-66
2022/03/12 05:51:15;;;;;;;13.27;8.00;;;6.90;99.90;;;6.59;100.00;97689.13;4988231;28;20388;-66
2022/03/12 05:53:44;;;;;;;16.85;8.73;;;7.00;99.90;;;6.62;100.00;97695.06;4985513;28;20089;-66
2022/03/12 05:56:12;;;;;;;13.10;8.38;;;7.10;99.90;;;6.81;100.00;97684.28;4982913;28;20062;-66
2022/03/12 05:58:40;;;;;;;15.88;8.20;;;7.20;99.90;;;6.88;100.00;97685.81;4982168;28;20125;-66
2022/03/12 06:01:08;;;;;;;14.55;7.68;;;7.30;99.90;;;6.90;100.00;97684.88;4982418;28;20038;-66
2022/03/12 06:03:35;;;;;;;12.52;8.02;;;7.40;99.90;;;6.98;100.00;97683.81;4985472;28;20153;-66
2022/03/12 06:06:03;;;;;;;13.13;7.55;;;7.50;99.90;;;7.17;100.00;97682.47;4981837;28;20066;-66
2022/03/12 06:08:32;;;;;;;12.10;7.80;;;7.50;99.90;;;7.10;100.00;97680.94;4983559;28;20054;-65
2022/03/12 06:11:00;;;;;;;11.45;7.13;;;7.50;99.90;;;7.19;100.00;97675.53;4984196;28;20126;-65
2022/03/12 06:13:30;;;;;;;15.23;8.25;;;7.60;99.90;;;7.32;100.00;97674.31;4986200;28;20061;-66
2022/03/12 06:15:58;;;;;;;14.43;8.40;;;7.70;99.90;;;7.19;100.00;97674.69;4982143;28;20058;-65
2022/03/12 06:18:34;;;;;;;18.42;8.43;;;7.70;99.90;;;7.29;100.00;97676.09;4982102;28;20468;-66
2022/03/12 06:21:05;;;;;;;14.18;7.97;;;7.70;99.90;;;7.26;100.00;97681.38;4969300;28;20062;-66
2022/03/12 06:23:33;;;;;;;13.93;8.93;;;7.80;99.90;;;7.23;100.00;97679.72;4966502;28;20127;-68
2022/03/12 06:26:02;;;;;;;13.90;7.95;;;7.80;99.90;;;7.31;100.00;97679.50;4969198;28;20050;-68
2022/03/12 06:28:32;;;;;;;12.77;7.43;;;7.80;99.90;;;7.39;100.00;97674.97;4980817;28;20145;-68
2022/03/12 06:31:00;;;;;;;11.43;7.20;;;7.80;99.90;;;7.45;100.00;97679.09;4983043;28;20137;-67
2022/03/12 06:33:28;;;;;;;14.23;8.30;;;7.90;99.90;;;7.44;100.00;97680.84;4980594;28;20046;-67
2022/03/12 06:35:57;;;;;;;14.90;8.48;;;7.90;99.90;;;7.43;100.00;97683.47;4973118;28;20050;-67
2022/03/12 06:38:26;;;;;;;13.52;7.43;;;8.00;99.90;;;7.53;100.00;97682.34;4983511;28;20050;-67
2022/03/12 06:40:56;;;;;;;16.45;8.38;;;8.00;99.90;;;7.60;100.00;97683.00;4984315;28;20053;-67
2022/03/12 06:43:26;;;;;;;13.48;7.65;;;8.10;99.90;;;7.58;100.00;97683.03;4971303;28;20153;-66
2022/03/12 06:45:54;;;;;;;13.32;7.78;;;8.10;99.90;;;7.64;100.00;97682.88;4967543;28;20158;-67
2022/03/12 06:48:22;;;;;;;15.02;8.80;;;8.10;99.90;;;7.77;100.00;97685.91;4967020;28;20097;-67
2022/03/12 06:50:49;;;;;;;12.52;7.60;;;8.20;99.90;;;7.86;100.00;97685.63;4983027;28;20519;-68
2022/03/12 06:53:16;;;;;;;13.70;7.80;;;8.20;99.90;;;7.82;100.00;97683.19;4974675;28;20160;-67
2022/03/12 06:55:43;;;;;;;14.65;7.88;;;8.30;99.90;;;7.84;100.00;97684.84;4985367;28;20093;-67
2022/03/12 06:58:11;;;;;;;13.15;8.10;;;8.40;99.90;;;7.90;100.00;97679.50;4985264;28;20082;-66
2022/03/12 07:00:39;;;;;;;18.60;8.15;;;8.40;99.90;;;7.97;100.00;97688.75;4980872;28;21892;-67
2022/03/12 07:03:06;;;;;;;14.13;8.80;;;8.50;99.90;;;8.04;100.00;97697.16;4983856;28;20734;-67
2022/03/12 07:05:34;;;;;;;14.82;8.80;;;8.60;99.90;;;7.90;100.00;97692.41;4981083;28;20070;-67
2022/03/12 07:08:01;;;;;;;16.15;8.55;;;8.60;99.90;;;7.82;100.00;97693.53;4986214;28;20061;-67
2022/03/12 07:10:29;;;;;;;13.98;7.95;;;8.60;99.90;;;8.01;100.00;97691.25;4982976;28;20054;-67
2022/03/12 07:12:56;;;;;;;12.57;7.72;;;8.70;99.90;;;8.06;100.00;97692.81;4983656;28;20053;-67
2022/03/12 07:15:24;;;;;;;13.82;8.02;;;8.70;99.90;;;8.06;100.00;97695.38;4983706;28;20183;-66
2022/03/12 07:17:52;;;;;;;12.32;7.13;;;8.60;99.90;;;8.11;100.00;97700.41;4981992;28;20199;-67
2022/03/12 07:20:19;;;;;;;14.35;7.70;;;8.60;99.90;;;8.12;100.00;97697.78;4983439;28;20050;-66
2022/03/12 07:22:47;;;;;;;13.32;8.55;;;8.60;99.90;;;8.07;100.00;97704.81;4985433;28;20084;-66
2022/03/12 07:25:15;;;;;;;14.38;7.85;;;8.60;99.90;;;8.11;100.00;97705.59;4981631;28;20086;-67
2022/03/12 07:27:44;;;;;;;14.50;7.90;;;8.70;99.90;;;8.25;100.00;97700.81;4976412;28;20047;-67
2022/03/12 07:30:14;;;;;;;12.98;7.32;;;8.70;99.90;;;8.44;100.00;97708.91;4981018;28;20050;-67
2022/03/12 07:32:43;;;;;;;17.65;9.05;;;8.80;99.90;;;8.45;100.00;97709.75;4981918;28;20056;-66
2022/03/12 07:35:13;;;;;;;13.30;8.20;;;8.90;99.90;;;8.56;100.00;97715.41;4985741;28;20050;-66
2022/03/12 07:37:42;;;;;;;13.30;8.02;;;9.00;99.90;;;8.56;100.00;97711.09;4983301;28;20050;-68
2022/03/12 07:40:12;;;;;;;14.25;8.40;;;9.10;99.90;;;8.51;100.00;97706.97;4985698;28;20133;-67
2022/03/12 07:42:40;;;;;;;12.57;8.15;;;9.20;99.90;;;8.55;100.00;97712.00;4966916;28;20046;-67
2022/03/12 07:45:09;;;;;;;13.13;8.18;;;9.20;99.90;;;8.76;100.00;97709.59;4986338;28;20085;-66
2022/03/12 07:47:37;;;;;;;13.52;8.50;;;9.30;99.90;;;8.88;100.00;97716.09;4985665;28;20120;-66
2022/03/12 07:50:07;;;;;;;15.30;7.60;;;9.50;99.90;;;9.07;100.00;97713.72;4984149;28;20124;-65
2022/03/12 07:52:36;;;;;;;12.50;7.50;;;9.50;99.90;;;9.13;100.00;97716.94;4953156;28;20081;-66
2022/03/12 07:55:04;;;;;;;12.82;7.25;;;9.60;99.90;;;9.17;100.00;97715.94;4983461;28;20377;-66
2022/03/12 07:57:32;;;;;;;13.57;7.63;;;9.70;99.90;;;9.06;100.00;97715.47;4980762;28;20050;-66
2022/03/12 07:59:59;;;;;;;12.55;8.07;;;9.80;99.90;;;9.31;100.00;97705.09;4971146;28;20050;-67
2022/03/12 08:02:26;;;;;;;12.40;7.45;;;9.90;99.90;;;9.56;100.00;97709.41;4967947;28;20070;-67
2022/03/12 08:04:54;;;;;;;14.38;8.20;;;10.10;99.90;;;9.29;100.00;97709.50;4979606;28;20500;-67
2022/03/12 08:07:22;;;;;;;13.32;7.15;;;10.10;99.90;;;9.60;100.00;97719.63;4983326;28;20145;-67
2022/03/12 08:09:55;;;;;;;14.55;7.65;;;10.20;99.90;;;10.01;100.00;97718.94;4980707;28;20043;-66
2022/03/12 08:12:35;;;;;;;13.10;7.72;;;10.30;99.90;;;10.26;100.00;97711.94;4983953;28;20177;-67
2022/03/12 08:15:05;;;;;;;13.68;8.00;;;10.60;99.90;;;10.41;100.00;97722.66;4961834;28;20050;-68
2022/03/12 08:17:33;;;;;;;12.02;7.82;;;10.80;99.90;;;10.51;100.00;97716.16;4979975;28;20488;-67
2022/03/12 08:20:07;;;;;;;13.73;8.45;;;11.00;99.90;;;10.32;100.00;97725.59;4968290;28;20062;-67
2022/03/12 08:22:38;;;;;;;13.88;7.90;;;11.10;99.90;;;10.43;100.00;97723.44;4969022;28;20046;-67
2022/03/12 08:25:07;;;;;;;14.20;9.02;;;11.10;99.90;;;10.25;100.00;97725.81;4980129;28;20745;-66
2022/03/12 08:27:37;;;;;;;16.80;9.15;;;11.20;99.90;;;10.39;100.00;97719.25;4983588;28;20091;-67
2022/03/12 08:30:08;;;;;;;12.82;7.57;;;11.20;99.90;;;10.79;100.00;97721.09;4984405;28;20545;-67
2022/03/12 08:32:36;;;;;;;10.82;7.18;;;11.30;99.90;;;11.52;100.00;97718.88;4962447;28;20137;-67
2022/03/12 08:35:05;;;;;;;9.73;6.60;;;11.50;99.90;;;11.53;100.00;97730.94;4983032;28;20058;-68
2022/03/12 08:37:33;;;;;;;14.65;7.63;;;11.70;99.90;;;10.72;100.00;97731.78;4982103;28;20078;-68
2022/03/12 08:40:06;;;;;;;11.43;6.70;;;11.70;99.90;;;10.23;100.00;97727.59;4978291;28;20066;-68
2022/03/12 08:42:34;;;;;;;11.90;6.70;;;11.80;99.90;;;10.42;100.00;97730.38;4973291;28;20292;-67
2022/03/12 08:45:03;;;;;;;11.93;6.47;;;11.70;99.90;;;10.61;100.00;97729.63;4976962;28;20090;-66
2022/03/12 08:47:30;;;;;;;10.55;6.72;;;11.70;99.90;;;10.26;100.00;97734.41;4964181;28;20086;-66
2022/03/12 08:49:57;;;;;;;10.13;6.70;;;11.80;99.90;;;10.60;100.00;97718.38;4971872;28;20221;-67
2022/03/12 08:52:25;;;;;;;15.13;8.40;;;11.80;99.90;;;10.60;100.00;97723.59;4978939;28;20133;-68
2022/03/12 08:54:52;;;;;;;9.20;5.85;;;11.60;99.90;;;10.36;100.00;97734.97;4972718;28;20055;-68
2022/03/12 08:57:20;;;;;;;12.32;7.32;;;11.40;99.90;;;10.33;100.00;97728.16;4979928;28;20157;-67
2022/03/12 08:59:47;;;;;;;13.70;6.50;;;11.50;99.90;;;11.50;100.00;97726.72;4980558;28;20054;-67
2022/03/12 09:02:14;;;;;;;17.98;7.13;;;11.60;99.90;;;10.74;100.00;97736.03;4979398;28;20134;-67
2022/03/12 09:04:41;;;;;;;11.85;7.65;;;11.70;99.90;;;10.43;100.00;97746.78;4978607;28;20488;-67
2022/03/12 09:07:08;;;;;;;13.07;7.15;;;11.90;99.90;;;10.66;100.00;97738.91;4979339;28;20679;-67
2022/03/12 09:09:35;;;;;;;10.02;7.25;;;12.00;99.90;;;10.70;100.00;97738.78;4978092;28;20197;-67
2022/03/12 09:12:03;;;;;;;13.88;7.32;;;12.20;99.90;;;11.52;100.00;97727.50;4978483;28;20065;-66
2022/03/12 09:14:34;;;;;;;11.30;7.65;;;12.30;99.90;;;10.81;100.00;97731.41;4971763;28;20105;-67
2022/03/12 09:17:03;;;;;;;12.05;7.28;;;12.30;99.90;;;11.29;100.00;97731.13;4978790;28;20050;-68
2022/03/12 09:19:32;;;;;;;11.70;7.25;;;12.40;99.50;;;11.67;100.00;97725.13;4985728;28;20047;-66
2022/03/12 09:22:02;;;;;;;12.80;7.15;;;12.70;99.60;;;11.71;100.00;97727.53;4982530;28;20050;-66
2022/03/12 09:24:29;;;;;;;13.13;7.78;;;12.80;99.60;;;11.44;100.00;97721.78;4983481;28;20143;-67
2022/03/12 09:26:56;;;;;;;10.88;6.75;;;12.90;98.30;;;12.02;100.00;97713.19;4983120;28;20135;-66
2022/03/12 09:29:23;;;;;;;10.45;7.55;;;12.90;98.20;;;11.44;100.00;97716.59;4984169;28;20049;-66
2022/03/12 09:31:51;;;;;;;11.70;7.57;;;13.00;97.30;;;10.89;100.00;97716.38;4984001;28;20153;-67
2022/03/12 09:34:18;;;;;;;13.10;7.97;;;13.00;96.50;;;11.84;100.00;97711.41;4983662;28;20505;-66
2022/03/12 09:36:45;;;;;;;13.77;7.78;;;12.90;97.30;;;11.48;100.00;97714.72;4982049;28;20081;-67
2022/03/12 09:39:12;;;;;;;16.27;7.53;;;12.80;97.90;;;11.38;100.00;97714.28;4982605;28;20058;-66
2022/03/12 09:41:40;;;;;;;12.50;7.45;;;12.80;96.80;;;11.23;100.00;97722.75;4981392;28;20133;-67
2022/03/12 09:44:07;;;;;;;11.98;7.32;;;12.80;97.20;;;11.31;100.00;97715.44;4967943;28;20051;-66
2022/03/12 09:46:36;;;;;;;11.57;7.00;;;12.50;96.80;;;11.85;100.00;97715.66;4981161;28;20813;-67
2022/03/12 09:49:04;;;;;;;13.85;7.50;;;12.60;97.20;;;11.57;100.00;97718.69;4984166;28;20054;-67
2022/03/12 09:51:31;;;;;;;13.00;7.38;;;12.60;97.30;;;12.25;100.00;97714.72;4982752;28;20101;-66
2022/03/12 09:53:59;;;;;;;12.55;7.47;;;12.70;97.70;;;11.44;100.00;97715.75;4983868;28;20463;-67
2022/03/12 09:56:27;;;;;;;11.70;7.28;;;12.70;96.80;;;11.70;100.00;97718.06;4981936;28;20584;-66
2022/03/12 09:58:54;;;;;;;9.88;7.00;;;12.80;96.60;;;12.26;100.00;97705.13;4980264;28;20060;-66
2022/03/12 10:01:21;;;;;;;10.50;6.72;;;12.80;97.30;;;11.22;100.00;97713.25;4980372;28;20094;-66
2022/03/12 10:03:49;;;;;;;11.02;6.57;;;12.90;96.30;;;11.73;100.00;97710.09;4979425;28;20393;-66
2022/03/12 10:06:16;;;;;;;11.23;7.25;;;12.70;97.30;;;11.37;100.00;97714.34;4981249;28;20050;-66
2022/03/12 10:08:44;;;;;;;11.85;6.85;;;12.50;97.10;;;11.07;100.00;97719.94;4980936;28;20212;-66
2022/03/12 10:11:11;;;;;;;16.45;6.90;;;12.40;96.90;;;11.09;100.00;97716.38;4980783;28;20133;-66
2022/03/12 10:13:39;;;;;;;13.52;6.75;;;12.40;97.30;;;11.22;100.00;97727.09;4967340;28;20125;-66
2022/03/12 10:16:07;;;;;;;12.88;7.07;;;12.40;97.60;;;11.32;100.00;97721.50;4983327;28;20086;-66
2022/03/12 10:18:36;;;;;;;11.25;6.65;;;12.40;97.80;;;11.08;100.00;97717.28;4966899;28;20050;-66
2022/03/12 10:21:03;;;;;;;11.50;6.53;;;12.60;97.80;;;11.72;100.00;97718.84;4982495;28;20567;-66
2022/03/12 10:23:34;;;;;;;12.07;7.90;;;12.50;97.30;;;11.63;100.00;97718.38;4981429;28;20070;-65
2022/03/12 10:26:02;;;;;;;10.75;6.78;;;12.80;97.40;;;12.11;100.00;97711.88;4978939;28;20061;-65